Time;durP1;ratioP1;P1;durP2;ratioP2;P2;SDS_P1;SDS_P2;PMS_P1;PMS_P2;Temp;Humidity;BMP_temperature;BMP_pressure;BME280_temperature;BME280_humidity;BME280_pressure;Samples;Min_cycle;Max_cycle;Signal;HPM_P1;HPM_P2
2022/09/23 00:01:06;;;;;;;9.13;1.50;;;;;;;19.23;100.00;99792.09;7390122;19;20018;-80
2022/09/23 00:03:33;;;;;;;10.23;1.38;;;;;;;18.81;100.00;99784.50;7390859;19;20018;-80
2022/09/23 00:06:02;;;;;;;4.32;1.33;;;;;;;19.21;100.00;99786.22;7392793;19;20505;-80
2022/09/23 00:08:28;;;;;;;7.10;2.28;;;;;;;19.17;100.00;99788.59;7389673;19;20578;-80
2022/09/23 00:10:55;;;;;;;3.42;1.63;;;;;;;19.27;100.00;99789.72;7387082;19;20419;-80
2022/09/23 00:13:23;;;;;;;8.02;1.75;;;;;;;19.25;100.00;99795.13;7390431;19;20014;-80
2022/09/23 00:15:50;;;;;;;3.67;1.55;;;;;;;19.32;100.00;99791.69;7393868;19;20018;-80
2022/09/23 00:18:16;;;;;;;7.10;2.85;;;;;;;19.30;100.00;99791.47;7391337;19;20018;-80
2022/09/23 00:20:43;;;;;;;8.90;1.88;;;;;;;19.19;100.00;99788.06;7389836;19;20022;-79
2022/09/23 00:23:10;;;;;;;4.05;1.52;;;;;;;19.25;100.00;99789.47;7388291;19;20082;-81
2022/09/23 00:25:36;;;;;;;3.10;1.67;;;;;;;19.49;100.00;99797.13;7393005;19;20034;-80
2022/09/23 00:28:02;;;;;;;7.63;1.10;;;;;;;19.31;100.00;99793.00;7394239;19;20488;-80
2022/09/23 00:30:28;;;;;;;6.97;1.25;;;;;;;19.43;100.00;99797.19;7387029;19;20350;-81
2022/09/23 00:32:55;;;;;;;6.50;1.33;;;;;;;19.53;100.00;99798.31;7389086;19;20022;-80
2022/09/23 00:35:22;;;;;;;13.20;2.95;;;;;;;19.47;100.00;99794.81;7393700;19;20045;-80
2022/09/23 00:37:48;;;;;;;6.75;2.47;;;;;;;19.52;100.00;99791.13;7391180;19;20026;-80
2022/09/23 00:40:14;;;;;;;6.28;1.23;;;;;;;19.27;100.00;99792.56;7387230;19;20029;-80
2022/09/23 00:42:50;;;;;;;3.25;1.63;;;;;;;19.32;100.00;99788.88;7388293;19;20018;-81
2022/09/23 00:45:17;;;;;;;7.95;2.35;;;;;;;19.60;100.00;99794.84;7392249;19;20451;-80
2022/09/23 00:47:46;;;;;;;8.35;1.83;;;;;;;19.71;100.00;99790.31;7392844;19;20015;-80
2022/09/23 00:50:29;;;;;;;4.43;1.55;;;;;;;19.79;100.00;99786.31;7387708;19;20011;-80
2022/09/23 00:52:58;;;;;;;1.83;0.93;;;;;;;19.85;100.00;99789.03;7390815;19;20085;-80
2022/09/23 00:55:29;;;;;;;5.35;2.33;;;;;;;19.79;100.00;99785.56;7393035;19;20042;-81
2022/09/23 00:57:56;;;;;;;;;;;;;;;19.64;100.00;99788.91;7391585;19;20018;-80
2022/09/23 01:00:22;;;;;;;4.65;1.65;;;;;;;19.83;100.00;99791.63;7387074;19;20278;-80
2022/09/23 01:02:49;;;;;;;12.55;1.00;;;;;;;20.00;100.00;99789.28;7386817;19;20010;-80
2022/09/23 01:05:16;;;;;;;8.00;2.60;;;;;;;19.89;100.00;99783.81;7390364;19;20479;-81
2022/09/23 01:07:43;;;;;;;4.72;1.48;;;;;;;20.04;100.00;99784.06;7387950;19;20018;-80
2022/09/23 01:10:12;;;;;;;9.27;3.70;;;;;;;20.00;100.00;99781.56;7387023;19;20023;-80
2022/09/23 01:13:00;;;;;;;5.97;1.45;;;;;;;19.83;100.00;99791.63;7390441;19;20019;-80
2022/09/23 01:16:08;;;;;;;7.00;2.50;;;;;;;19.89;100.00;99786.66;7392340;19;20019;-80
2022/09/23 01:18:58;;;;;;;9.88;1.77;;;;;;;19.97;100.00;99788.28;7388672;19;20484;-81
2022/09/23 01:21:55;;;;;;;15.90;2.85;;;;;;;19.94;100.00;99789.38;7386776;19;20026;-80
2022/09/23 01:24:31;;;;;;;5.20;2.00;;;;;;;19.58;100.00;99783.31;7389265;19;20056;-81
2022/09/23 01:27:23;;;;;;;6.20;1.42;;;;;;;19.90;100.00;99786.13;7390081;19;20037;-79
2022/09/23 01:30:13;;;;;;;4.88;1.10;;;;;;;19.84;100.00;99788.25;7388284;19;20018;-80
2022/09/23 01:32:48;;;;;;;4.13;1.17;;;;;;;19.80;100.00;99781.41;7387458;19;20029;-80
2022/09/23 01:35:34;;;;;;;6.05;2.72;;;;;;;19.71;100.00;99790.31;7390352;19;20051;-80
2022/09/23 01:38:06;;;;;;;7.50;1.60;;;;;;;19.33;100.00;99789.63;7389507;19;20091;-80
2022/09/23 01:40:45;;;;;;;4.75;0.68;;;;;;;19.29;100.00;99787.13;7387921;19;20038;-80
2022/09/23 01:43:20;;;;;;;1.83;0.75;;;;;;;19.22;100.00;99781.34;7384670;19;20048;-81
2022/09/23 01:45:52;;;;;;;4.50;1.92;;;;;;;19.27;100.00;99789.72;7390508;19;20030;-80
2022/09/23 01:49:01;;;;;;;6.22;1.58;;;;;;;19.19;100.00;99783.16;7389178;19;20500;-80
2022/09/23 01:51:36;;;;;;;9.35;1.10;;;;;;;17.60;100.00;99789.47;7386565;19;20021;-81
2022/09/23 01:54:16;;;;;;;1.70;0.80;;;;;;;18.32;100.00;99788.72;7388396;19;20042;-80
2022/09/23 01:56:51;;;;;;;0.77;0.57;;;;;;;18.92;100.00;99795.66;7388406;19;20026;-80
2022/09/23 01:59:25;;;;;;;1.50;0.77;;;;;;;18.94;100.00;99781.75;7385941;19;20255;-80
2022/09/23 02:02:06;;;;;;;2.75;1.17;;;;;;;18.88;100.00;99790.28;7386896;19;20014;-80
2022/09/23 02:04:44;;;;;;;2.63;0.50;;;;;;;19.05;100.00;99786.47;7388150;19;20077;-80
2022/09/23 02:07:27;;;;;;;1.65;0.77;;;;;;;19.03;100.00;99789.06;7386480;19;20022;-80
2022/09/23 02:09:59;;;;;;;4.78;1.35;;;;;;;18.96;100.00;99787.63;7384790;19;20034;-80
2022/09/23 02:12:28;;;;;;;0.95;0.75;;;;;;;18.84;100.00;99789.09;7388334;19;20023;-80
2022/09/23 02:15:01;;;;;;;6.00;1.48;;;;;;;18.86;100.00;99795.72;7388541;19;20041;-80
2022/09/23 02:17:52;;;;;;;1.30;0.47;;;;;;;18.91;100.00;99785.63;7390726;19;20508;-80
2022/09/23 02:20:24;;;;;;;2.60;1.08;;;;;;;19.10;100.00;99783.56;7384988;19;20015;-80
2022/09/23 02:23:08;;;;;;;1.38;0.60;;;;;;;19.17;100.00;99782.19;7385279;19;20496;-80
2022/09/23 02:25:56;;;;;;;2.78;0.52;;;;;;;19.12;100.00;99786.63;7387286;19;20019;-80
2022/09/23 02:29:00;;;;;;;2.45;0.70;;;;;;;18.92;100.00;99781.53;7391403;19;20371;-80
2022/09/23 02:32:07;;;;;;;1.50;0.68;;;;;;;18.97;100.00;99783.53;7383661;19;20495;-81
2022/09/23 02:34:51;;;;;;;1.38;0.73;;;;;;;18.95;100.00;99788.91;7386556;19;20018;-81
2022/09/23 02:37:23;;;;;;;0.80;0.80;;;;;;;18.75;100.00;99783.84;7386864;19;20301;-80
2022/09/23 02:40:08;;;;;;;1.60;1.00;;;;;;;18.72;100.00;99782.06;7385050;19;20497;-80
2022/09/23 02:42:46;;;;;;;2.88;1.20;;;;;;;18.59;100.00;99790.44;7384776;19;20042;-80
2022/09/23 02:45:13;;;;;;;0.95;0.82;;;;;;;18.51;100.00;99792.34;7386544;19;20601;-80
2022/09/23 02:47:43;;;;;;;3.28;0.55;;;;;;;18.47;100.00;99784.19;7390484;19;20370;-80
2022/09/23 02:50:09;;;;;;;1.85;0.30;;;;;;;18.49;100.00;99780.84;7384888;19;20082;-80
2022/09/23 02:52:36;;;;;;;8.50;1.05;;;;;;;18.66;100.00;99787.03;7387013;19;20014;-80
2022/09/23 02:55:05;;;;;;;0.82;0.60;;;;;;;18.69;100.00;99783.88;7387150;19;20045;-81
2022/09/23 02:57:31;;;;;;;1.52;1.15;;;;;;;18.75;100.00;99789.47;7386807;19;20042;-80
2022/09/23 02:59:57;;;;;;;5.82;0.88;;;;;;;18.79;100.00;99796.34;7384724;19;20014;-81
2022/09/23 03:02:35;;;;;;;2.65;0.98;;;;;;;18.78;100.00;99796.84;7384986;19;20385;-80
2022/09/23 03:05:14;;;;;;;5.80;1.25;;;;;;;18.75;100.00;99789.47;7387390;19;20046;-80
2022/09/23 03:07:58;;;;;;;2.63;1.15;;;;;;;18.81;100.00;99790.16;7385027;19;20022;-80
2022/09/23 03:10:42;;;;;;;1.35;0.40;;;;;;;18.79;100.00;99792.75;7384370;19;20026;-80
2022/09/23 03:13:38;;;;;;;1.42;0.68;;;;;;;18.83;100.00;99790.38;7386934;19;20022;-81
2022/09/23 03:16:04;;;;;;;3.10;1.10;;;;;;;18.70;100.00;99795.94;7384955;19;20025;-81
2022/09/23 03:18:47;;;;;;;3.88;1.30;;;;;;;18.58;100.00;99794.56;7386237;19;20015;-80
2022/09/23 03:21:27;;;;;;;1.58;0.55;;;;;;;18.70;100.00;99790.31;7386384;19;20018;-81
2022/09/23 03:23:58;;;;;;;0.82;0.52;;;;;;;18.38;100.00;99787.34;7382738;19;20038;-81
2022/09/23 03:26:28;;;;;;;;;;;;;;;18.45;100.00;99791.66;7390147;19;20042;-80
2022/09/23 03:28:54;;;;;;;5.28;0.40;;;;;;;18.55;100.00;99801.28;7384241;19;19930;-80
2022/09/23 03:31:21;;;;;;;1.13;0.43;;;;;;;18.52;100.00;99796.69;7385466;19;20019;-81
2022/09/23 03:33:52;;;;;;;0.52;0.38;;;;;;;19.08;100.00;99786.16;7384419;19;20685;-81
2022/09/23 03:39:23;;;;;;;1.00;0.28;;;;;;;18.69;100.00;99791.63;7385327;19;20370;-80
2022/09/23 03:41:53;;;;;;;2.38;1.15;;;;;;;18.65;100.00;99788.31;7384595;19;20357;-80
2022/09/23 03:44:20;;;;;;;0.45;0.30;;;;;;;18.79;100.00;99787.88;7385582;19;20019;-80
2022/09/23 03:46:49;;;;;;;7.88;0.93;;;;;;;18.84;100.00;99783.44;7387439;19;20082;-80
2022/09/23 03:49:23;;;;;;;1.17;0.70;;;;;;;18.56;100.00;99791.53;7385537;19;20018;-81
2022/09/23 03:51:49;;;;;;;0.32;0.30;;;;;;;18.51;100.00;99789.53;7383733;19;20379;-80
2022/09/23 03:54:18;;;;;;;5.32;1.30;;;;;;;18.55;100.00;99790.00;7385039;19;20097;-81
2022/09/23 03:56:46;;;;;;;1.33;0.60;;;;;;;17.58;100.00;99798.44;7384516;19;20021;-80
2022/09/23 03:59:16;;;;;;;1.65;1.13;;;;;;;18.00;100.00;99792.13;7384950;19;20019;-81
2022/09/23 04:01:42;;;;;;;2.88;0.75;;;;;;;18.07;100.00;99788.72;7385320;19;20082;-81
2022/09/23 04:04:09;;;;;;;4.53;0.50;;;;;;;17.91;100.00;99794.53;7383139;19;20033;-80
2022/09/23 04:06:35;;;;;;;2.08;1.08;;;;;;;17.60;100.00;99800.72;7385197;19;20030;-80
2022/09/23 04:09:01;;;;;;;1.17;0.60;;;;;;;17.74;100.00;99797.50;7388919;19;20030;-81
2022/09/23 04:11:28;;;;;;;0.32;0.32;;;;;;;17.82;100.00;99792.81;7390406;19;20022;-81
2022/09/23 04:13:54;;;;;;;2.30;0.50;;;;;;;17.60;100.00;99798.69;7390947;19;20018;-81
2022/09/23 04:16:21;;;;;;;1.40;1.05;;;;;;;17.92;100.00;99799.66;7394583;19;20019;-81
2022/09/23 04:18:47;;;;;;;2.05;1.00;;;;;;;17.91;100.00;99800.19;7390199;19;20485;-81
2022/09/23 04:21:14;;;;;;;2.00;0.93;;;;;;;17.69;100.00;99800.38;7391864;19;20022;-81
2022/09/23 04:23:40;;;;;;;0.73;0.32;;;;;;;18.09;100.00;99805.88;7387791;19;20219;-80
2022/09/23 04:26:07;;;;;;;3.05;1.10;;;;;;;18.17;100.00;99801.16;7396713;19;20344;-80
2022/09/23 04:28:33;;;;;;;2.97;1.05;;;;;;;17.64;100.00;99801.19;7394527;19;20015;-81
2022/09/23 04:31:06;;;;;;;4.57;0.45;;;;;;;15.76;100.00;99805.66;7390778;19;20010;-81
2022/09/23 04:33:33;;;;;;;2.20;0.73;;;;;;;15.78;100.00;99814.34;7391763;19;20393;-81
2022/09/23 04:35:59;;;;;;;7.72;1.15;;;;;;;17.17;100.00;99812.53;7394843;19;20468;-81
2022/09/23 04:38:26;;;;;;;3.50;0.32;;;;;;;14.48;100.00;99821.50;7393045;19;20391;-80
2022/09/23 04:40:52;;;;;;;0.63;0.63;;;;;;;14.15;100.00;99824.88;7389796;19;20018;-81
2022/09/23 04:43:22;;;;;;;0.90;0.55;;;;;;;14.24;100.00;99826.69;7389580;19;20011;-81
2022/09/23 04:46:02;;;;;;;1.95;0.85;;;;;;;14.13;100.00;99837.84;7394521;19;20106;-81
2022/09/23 04:48:28;;;;;;;3.25;0.95;;;;;;;14.11;100.00;99834.78;7390649;19;20018;-80
2022/09/23 04:51:02;;;;;;;2.38;0.70;;;;;;;14.16;100.00;99831.25;7388702;19;20025;-80
2022/09/23 04:53:29;;;;;;;2.05;0.68;;;;;;;14.42;100.00;99835.47;7387465;19;20018;-81
2022/09/23 04:56:01;;;;;;;21.27;1.30;;;;;;;14.42;100.00;99829.88;7389390;19;20015;-81
2022/09/23 04:58:27;;;;;;;4.93;0.75;;;;;;;17.18;100.00;99824.56;7389018;19;20014;-80
2022/09/23 05:00:54;;;;;;;5.72;2.10;;;;;;;17.60;100.00;99821.19;7388486;19;20014;-80
2022/09/23 05:03:20;;;;;;;2.53;1.00;;;;;;;17.83;100.00;99822.53;7388092;19;20039;-80
2022/09/23 05:05:46;;;;;;;5.28;0.77;;;;;;;17.79;100.00;99827.69;7392831;19;20018;-80
2022/09/23 05:08:12;;;;;;;4.75;1.38;;;;;;;17.99;100.00;99818.78;7391729;19;20055;-79
2022/09/23 05:10:38;;;;;;;1.90;0.93;;;;;;;17.93;100.00;99820.88;7386988;19;20026;-80
2022/09/23 05:13:04;;;;;;;0.75;0.50;;;;;;;18.13;100.00;99825.28;7390035;19;20536;-80
2022/09/23 05:15:30;;;;;;;0.43;0.43;;;;;;;18.21;100.00;99829.06;7391531;19;20045;-80
2022/09/23 05:17:58;;;;;;;1.08;0.55;;;;;;;17.77;100.00;99830.28;7395155;19;20038;-80
2022/09/23 05:20:24;;;;;;;8.38;1.27;;;;;;;18.09;100.00;99831.25;7386564;19;20025;-80
2022/09/23 05:22:54;;;;;;;4.03;1.17;;;;;;;18.24;100.00;99828.00;7390361;19;20044;-81
2022/09/23 05:25:24;;;;;;;3.35;1.35;;;;;;;18.21;100.00;99837.53;7393238;19;20015;-80
2022/09/23 05:27:50;;;;;;;6.97;1.33;;;;;;;18.25;100.00;99845.69;7390718;19;20046;-80
2022/09/23 05:30:16;;;;;;;10.25;1.95;;;;;;;18.25;100.00;99834.41;7387704;19;20018;-80
2022/09/23 05:32:43;;;;;;;10.68;1.27;;;;;;;18.23;100.00;99837.00;7390710;19;20018;-80
2022/09/23 05:35:09;;;;;;;5.72;1.38;;;;;;;18.48;100.00;99835.72;7392184;19;20373;-80
2022/09/23 05:37:35;;;;;;;3.75;0.75;;;;;;;18.62;100.00;99834.53;7388032;19;20022;-80
2022/09/23 05:40:01;;;;;;;3.03;0.60;;;;;;;18.63;100.00;99836.03;7386621;19;20033;-80
2022/09/23 05:42:28;;;;;;;3.40;0.52;;;;;;;18.71;100.00;99839.81;7387127;19;20378;-80
2022/09/23 05:44:55;;;;;;;3.92;0.60;;;;;;;18.67;100.00;99847.78;7391051;19;20022;-80
2022/09/23 05:47:24;;;;;;;0.57;0.57;;;;;;;18.68;100.00;99846.50;7388169;19;20046;-80
2022/09/23 05:49:50;;;;;;;7.63;1.25;;;;;;;18.69;100.00;99850.84;7388431;19;20019;-79
2022/09/23 05:52:16;;;;;;;1.55;0.47;;;;;;;18.48;100.00;99853.41;7390072;19;20026;-81
2022/09/23 05:54:42;;;;;;;3.03;0.95;;;;;;;18.49;100.00;99859.81;7389624;19;20025;-79
2022/09/23 05:57:08;;;;;;;0.28;0.28;;;;;;;18.22;100.00;99858.00;7387477;19;20340;-80
2022/09/23 05:59:34;;;;;;;2.45;0.93;;;;;;;18.21;100.00;99856.50;7386745;19;20022;-80
2022/09/23 06:02:00;;;;;;;2.92;0.70;;;;;;;18.00;100.00;99864.63;7389114;19;20018;-80
2022/09/23 06:04:27;;;;;;;2.38;0.80;;;;;;;18.03;100.00;99864.34;7387900;19;20098;-80
2022/09/23 06:06:53;;;;;;;4.72;0.80;;;;;;;18.05;100.00;99869.47;7386390;19;20017;-79
2022/09/23 06:09:19;;;;;;;3.90;2.08;;;;;;;18.08;100.00;99866.34;7387079;19;20022;-79
2022/09/23 06:11:45;;;;;;;0.68;0.68;;;;;;;17.96;100.00;99873.38;7388443;19;20026;-79
2022/09/23 06:14:13;;;;;;;3.05;0.75;;;;;;;17.78;100.00;99873.28;7388679;19;20024;-78
2022/09/23 06:16:39;;;;;;;0.38;0.38;;;;;;;17.75;100.00;99877.94;7390474;19;20017;-79
2022/09/23 06:19:05;;;;;;;0.73;0.40;;;;;;;17.82;100.00;99876.59;7389248;19;20029;-79
2022/09/23 06:21:34;;;;;;;3.83;1.92;;;;;;;17.66;100.00;99877.47;7390522;19;20547;-78
2022/09/23 06:24:01;;;;;;;0.95;0.55;;;;;;;17.67;100.00;99881.84;7387217;19;20373;-79
2022/09/23 06:26:30;;;;;;;0.25;0.25;;;;;;;17.70;100.00;99887.16;7390218;19;20034;-79
2022/09/23 06:28:56;;;;;;;1.38;0.30;;;;;;;17.54;100.00;99888.06;7387767;19;20369;-79
2022/09/23 06:31:22;;;;;;;0.63;0.55;;;;;;;17.39;100.00;99885.56;7388237;19;20078;-80
2022/09/23 06:33:49;;;;;;;2.22;0.73;;;;;;;17.63;100.00;99887.72;7389193;19;20022;-80
2022/09/23 06:36:15;;;;;;;1.30;0.68;;;;;;;17.60;100.00;99891.59;7388910;19;20038;-79
2022/09/23 06:38:48;;;;;;;4.57;1.70;;;;;;;17.61;100.00;99890.31;7388515;19;20476;-79
2022/09/23 06:41:14;;;;;;;1.70;0.70;;;;;;;17.63;100.00;99892.63;7388909;19;20015;-79
2022/09/23 06:43:40;;;;;;;2.42;0.63;;;;;;;17.62;100.00;99896.72;7387512;19;20014;-79
2022/09/23 06:46:07;;;;;;;0.68;0.55;;;;;;;17.63;100.00;99899.00;7389443;19;20045;-79
2022/09/23 06:48:34;;;;;;;0.95;0.77;;;;;;;17.51;100.00;99897.56;7388113;19;20018;-79
2022/09/23 06:51:03;;;;;;;0.60;0.60;;;;;;;17.50;100.00;99900.88;7390361;19;20113;-78
2022/09/23 06:53:33;;;;;;;2.63;0.95;;;;;;;17.42;100.00;99897.84;7389731;19;20702;-80
2022/09/23 06:56:01;;;;;;;3.85;0.80;;;;;;;17.29;100.00;99900.47;7388962;19;20018;-79
2022/09/23 06:58:30;;;;;;;0.73;0.63;;;;;;;17.28;100.00;99907.41;7388430;19;20033;-79
2022/09/23 07:01:01;;;;;;;0.20;0.15;;;;;;;17.29;100.00;99908.91;7388603;19;20363;-80
2022/09/23 07:03:28;;;;;;;0.45;0.22;;;;;;;17.14;100.00;99908.50;7382236;19;20014;-80
2022/09/23 07:05:55;;;;;;;0.13;0.13;;;;;;;17.36;100.00;99897.13;7388519;19;20022;-79
2022/09/23 07:08:22;;;;;;;2.40;0.63;;;;;;;17.53;100.00;99899.84;7385798;19;20014;-79
2022/09/23 07:10:53;;;;;;;1.05;0.60;;;;;;;17.47;100.00;99902.69;7385658;19;20028;-79
2022/09/23 07:13:19;;;;;;;3.55;1.27;;;;;;;17.41;100.00;99899.13;7385167;19;20066;-79
2022/09/23 07:15:57;;;;;;;1.13;0.40;;;;;;;17.21;100.00;99896.69;7387465;19;20018;-79
2022/09/23 07:18:25;;;;;;;1.42;0.90;;;;;;;17.31;100.00;99906.34;7384528;19;20556;-79
2022/09/23 07:20:52;;;;;;;0.47;0.40;;;;;;;17.20;100.00;99906.41;7382390;19;20025;-79
2022/09/23 07:23:18;;;;;;;4.03;0.55;;;;;;;17.14;100.00;99902.88;7385368;19;20053;-79
2022/09/23 07:25:50;;;;;;;0.50;0.50;;;;;;;17.14;100.00;99902.88;7386888;19;20022;-79
2022/09/23 07:28:17;;;;;;;3.53;1.00;;;;;;;17.31;100.00;99909.16;7387802;19;20017;-79
2022/09/23 07:30:45;;;;;;;2.67;1.30;;;;;;;17.19;100.00;99902.09;7385515;19;20601;-79
2022/09/23 07:33:12;;;;;;;1.52;0.88;;;;;;;17.22;100.00;99915.09;7385941;19;20019;-80
2022/09/23 07:35:40;;;;;;;0.93;0.57;;;;;;;17.23;100.00;99911.00;7389497;19;20014;-79
2022/09/23 07:38:07;;;;;;;1.80;0.63;;;;;;;17.22;100.00;99915.88;7389778;19;20042;-79
2022/09/23 07:40:34;;;;;;;1.50;0.73;;;;;;;17.41;100.00;99919.59;7384554;19;20011;-79
2022/09/23 07:43:04;;;;;;;2.65;0.65;;;;;;;17.44;100.00;99920.59;7387176;19;20449;-80
2022/09/23 07:45:32;;;;;;;2.38;0.63;;;;;;;17.45;100.00;99927.78;7396406;19;20338;-79
2022/09/23 07:48:00;;;;;;;5.82;1.40;;;;;;;17.52;100.00;99926.50;7397277;19;20018;-81
2022/09/23 07:50:28;;;;;;;3.58;0.85;;;;;;;17.49;100.00;99922.63;7391841;19;20377;-80
2022/09/23 07:52:55;;;;;;;0.65;0.65;;;;;;;17.47;100.00;99930.84;7397513;19;20484;-80
2022/09/23 07:55:21;;;;;;;1.13;0.30;;;;;;;17.46;100.00;99923.66;7394667;19;20025;-80
2022/09/23 07:57:47;;;;;;;0.60;0.57;;;;;;;17.58;100.00;99930.78;7392505;19;20382;-80
2022/09/23 08:00:13;;;;;;;3.22;1.58;;;;;;;17.69;100.00;99930.72;7389096;19;20074;-80
2022/09/23 08:02:40;;;;;;;0.20;0.20;;;;;;;17.70;100.00;99929.41;7392298;19;20109;-79
2022/09/23 08:05:07;;;;;;;2.60;1.45;;;;;;;17.54;100.00;99932.38;7395584;19;20031;-79
2022/09/23 08:07:33;;;;;;;1.27;0.57;;;;;;;17.56;100.00;99933.38;7392147;19;20017;-80
2022/09/23 08:10:00;;;;;;;0.20;0.20;;;;;;;17.57;100.00;99934.88;7389861;19;20018;-79
2022/09/23 08:12:28;;;;;;;1.90;0.65;;;;;;;17.43;100.00;99933.16;7391612;19;20018;-79
2022/09/23 08:14:55;;;;;;;1.25;0.88;;;;;;;17.52;100.00;99944.13;7393418;19;20014;-78
2022/09/23 08:17:21;;;;;;;1.35;0.40;;;;;;;17.47;100.00;99936.47;7395620;19;20015;-79
2022/09/23 08:19:47;;;;;;;4.05;0.40;;;;;;;17.56;100.00;99941.81;7394304;19;20480;-78
2022/09/23 08:22:14;;;;;;;0.70;0.65;;;;;;;17.64;100.00;99939.19;7394345;19;20094;-79
2022/09/23 08:24:41;;;;;;;0.63;0.63;;;;;;;17.80;100.00;99949.59;7390795;19;20022;-78
2022/09/23 08:27:08;;;;;;;1.15;0.30;;;;;;;17.83;100.00;99946.50;7391972;19;20018;-78
2022/09/23 08:29:34;;;;;;;2.58;0.80;;;;;;;17.88;100.00;99947.75;7395192;19;20468;-80
2022/09/23 08:32:01;;;;;;;1.83;1.15;;;;;;;17.91;100.00;99952.34;7390215;19;20353;-78
2022/09/23 08:34:27;;;;;;;0.15;0.10;;;;;;;17.91;100.00;99949.53;7391039;19;20355;-79
2022/09/23 08:36:53;;;;;;;3.70;0.85;;;;;;;17.90;100.00;99951.56;7389799;19;20023;-79
2022/09/23 08:39:21;;;;;;;0.63;0.40;;;;;;;17.81;100.00;99951.88;7388903;19;20018;-79
2022/09/23 08:42:02;;;;;;;0.35;0.32;;;;;;;17.68;100.00;99946.09;7391430;19;20543;-79
2022/09/23 08:44:40;;;;;;;;;;;;;;;17.63;100.00;99952.50;7388729;19;20014;-79
2022/09/23 08:47:27;;;;;;;0.10;0.00;;;;;;;17.72;100.00;99957.84;7390608;19;19919;-79
2022/09/23 08:49:59;;;;;;;1.00;0.35;;;;;;;17.59;100.00;99954.84;7387760;19;20018;-78
2022/09/23 08:52:38;;;;;;;0.73;0.25;;;;;;;17.48;100.00;99952.06;7390082;19;20017;-78
2022/09/23 08:55:10;;;;;;;0.73;0.47;;;;;;;17.58;100.00;99958.97;7390778;19;20022;-79
2022/09/23 08:58:01;;;;;;;0.65;0.57;;;;;;;17.58;100.00;99961.78;7391458;19;20011;-79
2022/09/23 09:00:34;;;;;;;0.10;0.10;;;;;;;17.58;100.00;99958.19;7387599;19;20010;-79
2022/09/23 09:03:09;;;;;;;0.20;0.10;;;;;;;17.75;100.00;99959.63;7388845;19;20026;-78
2022/09/23 09:05:35;;;;;;;0.30;0.22;;;;;;;18.19;100.00;99959.25;7391904;19;20094;-79
2022/09/23 09:08:02;;;;;;;1.30;0.60;;;;;;;18.25;100.00;99956.41;7389416;19;20022;-78
2022/09/23 09:10:36;;;;;;;8.57;0.30;;;;;;;18.57;100.00;99956.63;7388445;19;20019;-78
2022/09/23 09:13:06;;;;;;;0.55;0.52;;;;;;;18.57;100.00;99948.16;7390614;19;20028;-78
2022/09/23 09:15:41;;;;;;;0.55;0.20;;;;;;;18.67;100.00;99949.34;7393919;19;20026;-82
2022/09/23 09:18:18;;;;;;;0.43;0.22;;;;;;;18.40;100.00;99958.81;7396051;19;20496;-82
2022/09/23 09:20:56;;;;;;;0.55;0.28;;;;;;;17.99;100.00;99954.06;7387497;19;20473;-79
2022/09/23 09:23:28;;;;;;;0.25;0.10;;;;;;;17.99;100.00;99954.06;7388077;19;20014;-79
2022/09/23 09:25:58;;;;;;;0.68;0.52;;;;;;;18.60;100.00;99959.16;7394033;19;20035;-78
2022/09/23 09:28:35;;;;;;;0.10;0.10;;;;;;;18.53;100.00;99956.16;7392385;19;20022;-78
2022/09/23 09:31:20;;;;;;;0.40;0.30;;;;;;;18.52;100.00;99954.63;7389586;19;20791;-78
2022/09/23 09:33:59;;;;;;;0.88;0.20;;;;;;;18.57;100.00;99953.81;7390013;19;20018;-78
2022/09/23 09:36:53;;;;;;;0.40;0.32;;;;;;;18.75;100.00;99950.28;7393052;19;20014;-79
2022/09/23 09:39:19;;;;;;;0.10;0.10;;;;;;;18.72;100.00;99951.34;7388785;19;20018;-78
2022/09/23 09:41:54;;;;;;;1.90;0.20;;;;;;;19.00;100.00;99951.78;7386842;19;20477;-78
2022/09/23 09:44:36;;;;;;;0.10;0.10;;;;;;;18.95;100.00;99952.63;7386587;19;20037;-79
2022/09/23 09:47:27;;;;;;;0.40;0.20;;;;;;;19.01;100.00;99944.88;7390417;19;20050;-80
2022/09/23 09:50:06;;;;;;;0.10;0.10;;;;;;;18.92;100.00;99948.03;7385926;19;20036;-80
2022/09/23 09:52:32;;;;;;;0.73;0.20;;;;;;;18.89;100.00;99949.88;7389421;19;20480;-79
2022/09/23 09:55:13;;;;;;;4.97;0.68;;;;;;;18.99;100.00;99953.09;7390368;19;20035;-79
2022/09/23 09:58:03;;;;;;;;;;;;;;;19.16;100.00;99956.47;7388305;19;20019;-79
2022/09/23 10:00:29;;;;;;;0.20;0.20;;;;;;;19.18;100.00;99939.78;7385954;19;19939;-79
2022/09/23 10:03:00;;;;;;;0.15;0.15;;;;;;;19.26;100.00;99943.50;7388923;19;20014;-78
2022/09/23 10:05:30;;;;;;;0.35;0.25;;;;;;;19.88;100.00;99937.78;7390452;19;20481;-79
2022/09/23 10:08:34;;;;;;;0.10;0.10;;;;;;;19.43;100.00;99952.53;7389907;19;20345;-79
2022/09/23 10:11:14;;;;;;;0.45;0.10;;;;;;;19.63;100.00;99932.22;7386237;19;20023;-79
2022/09/23 10:14:01;;;;;;;0.10;0.10;;;;;;;19.75;100.00;99932.06;7388777;19;20029;-79
2022/09/23 10:16:30;;;;;;;0.20;0.10;;;;;;;19.67;100.00;99932.69;7393549;19;20803;-79
2022/09/23 10:18:58;;;;;;;1.40;0.13;;;;;;;19.63;100.00;99932.22;7386338;19;20026;-79
2022/09/23 10:21:32;;;;;;;0.20;0.20;;;;;;;19.67;100.00;99938.31;7387625;19;20022;-79
2022/09/23 10:24:00;;;;;;;0.28;0.17;;;;;;;19.89;100.00;99930.81;7386244;19;20014;-79
2022/09/23 10:26:32;;;;;;;0.10;0.03;;;;;;;19.88;100.00;99934.94;7391862;19;20107;-79
2022/09/23 10:29:22;;;;;;;0.10;0.10;;;;;;;19.97;100.00;99931.69;7386172;19;20571;-79
2022/09/23 10:31:51;;;;;;;0.43;0.35;;;;;;;20.01;100.00;99926.50;7384663;19;20484;-79
2022/09/23 10:34:27;;;;;;;0.10;0.10;;;;;;;20.00;100.00;99936.28;7386704;19;20052;-78
2022/09/23 10:37:17;;;;;;;0.68;0.22;;;;;;;20.01;100.00;99926.50;7386912;19;20102;-82
2022/09/23 10:48:42;;;;;;;0.30;0.20;;;;;;;19.77;100.00;99930.22;7386462;19;20039;-81
2022/09/23 10:51:55;;;;;;;0.10;0.03;;;;;;;19.83;100.00;99930.13;7387305;19;20409;-80
2022/09/23 10:54:51;;;;;;;0.30;0.30;;;;;;;19.67;100.00;99927.03;7384831;19;20017;-82
2022/09/23 10:57:41;;;;;;;0.10;0.10;;;;;;;19.75;100.00;99932.06;7387107;19;20031;-80
2022/09/23 11:00:07;;;;;;;0.30;0.10;;;;;;;19.61;100.00;99925.59;7385654;19;20010;-81
2022/09/23 11:02:39;;;;;;;0.10;0.00;;;;;;;19.74;100.00;99919.22;7386902;19;20021;-80
2022/09/23 11:05:47;;;;;;;0.43;0.10;;;;;;;19.78;100.00;99925.31;7388310;19;20014;-81
2022/09/23 11:08:39;;;;;;;0.30;0.30;;;;;;;19.59;100.00;99926.13;7384614;19;20019;-82
2022/09/23 11:11:40;;;;;;;0.10;0.10;;;;;;;19.65;100.00;99923.22;7388260;19;20019;-81
2022/09/23 11:14:16;;;;;;;0.10;0.10;;;;;;;19.98;100.00;99921.91;7385574;19;20018;-81
2022/09/23 11:17:13;;;;;;;1.48;0.35;;;;;;;20.00;100.00;99919.31;7385073;19;20358;-81
2022/09/23 11:20:03;;;;;;;0.43;0.10;;;;;;;20.16;100.00;99918.28;7383271;19;20026;-81
2022/09/23 11:22:34;;;;;;;0.10;0.10;;;;;;;20.66;100.00;99912.47;7383753;19;20489;-85
2022/09/23 11:25:26;;;;;;;1.75;0.35;;;;;;;20.72;100.00;99924.47;7387483;19;20034;-82
2022/09/23 11:27:56;;;;;;;5.35;0.32;;;;;;;20.72;100.00;99915.97;7388373;19;20042;-82
2022/09/23 11:30:31;;;;;;;0.60;0.45;;;;;;;20.90;100.00;99917.91;7384707;19;20503;-83
2022/09/23 11:33:15;;;;;;;0.15;0.15;;;;;;;21.20;100.00;99919.66;7387347;19;20017;-81
2022/09/23 11:35:49;;;;;;;2.05;0.47;;;;;;;21.02;100.00;99916.41;7389952;19;20015;-82
2022/09/23 11:38:26;;;;;;;1.02;0.20;;;;;;;21.03;100.00;99906.59;7384906;19;20010;-82
2022/09/23 11:40:57;;;;;;;0.10;0.10;;;;;;;20.91;100.00;99908.13;7385471;19;20030;-82
2022/09/23 11:43:28;;;;;;;0.50;0.20;;;;;;;20.87;100.00;99904.88;7383672;19;20025;-82
2022/09/23 11:46:08;;;;;;;5.47;0.45;;;;;;;21.05;100.00;99909.66;7387573;19;20031;-82
2022/09/23 11:48:43;;;;;;;0.10;0.10;;;;;;;21.04;100.00;99905.31;7382318;19;20019;-81
2022/09/23 11:51:21;;;;;;;2.20;0.20;;;;;;;21.18;100.00;99902.47;7384085;19;20040;-81
2022/09/23 11:54:18;;;;;;;0.28;0.17;;;;;;;21.08;100.00;99908.56;7384166;19;20464;-80
2022/09/23 11:56:49;;;;;;;6.82;0.73;;;;;;;21.36;100.00;99896.63;7385829;19;20504;-78
2022/09/23 11:59:47;;;;;;;0.38;0.30;;;;;;;21.61;100.00;99903.50;7384673;19;20117;-79
2022/09/23 12:02:25;;;;;;;5.35;0.28;;;;;;;22.11;100.00;99899.47;7385871;19;20338;-82
2022/09/23 12:05:08;;;;;;;0.95;0.82;;;;;;;21.99;100.00;99898.25;7386550;19;20028;-80